Time;durP1;ratioP1;P1;durP2;ratioP2;P2;SDS_P1;SDS_P2;PMS_P1;PMS_P2;Temp;Humidity;BMP_temperature;BMP_pressure;BME280_temperature;BME280_humidity;BME280_pressure;Samples;Min_cycle;Max_cycle;Signal;HPM_P1;HPM_P2
2023/05/20 00:00:13;;;;;;;9.03;7.83;;;;;;;13.50;95.53;100916.28;1463358;89;21622;-90
2023/05/20 00:02:40;;;;;;;10.00;7.43;;;;;;;13.50;95.98;100921.61;1461635;89;21399;-92
2023/05/20 00:05:07;;;;;;;11.83;8.77;;;;;;;13.50;95.70;100915.78;1462332;89;22506;-91
2023/05/20 00:07:33;;;;;;;11.63;9.70;;;;;;;13.50;95.42;100914.45;1461538;89;21591;-91
2023/05/20 00:09:59;;;;;;;13.77;8.83;;;;;;;13.51;95.29;100915.28;1460390;89;21666;-88
2023/05/20 00:12:26;;;;;;;10.87;8.57;;;;;;;13.45;95.60;100914.08;1465830;89;22428;-93
2023/05/20 00:14:52;;;;;;;11.27;8.73;;;;;;;13.37;95.44;100911.34;1463806;87;22416;-90
2023/05/20 00:17:18;;;;;;;11.60;8.07;;;;;;;13.33;95.62;100918.48;1459549;89;21408;-91
2023/05/20 00:19:45;;;;;;;14.57;8.63;;;;;;;13.28;95.53;100916.27;1440870;89;21692;-91
2023/05/20 00:22:11;;;;;;;11.97;8.13;;;;;;;13.23;95.57;100914.52;1437267;88;21533;-91
2023/05/20 00:24:37;;;;;;;13.70;8.03;;;;;;;13.19;95.78;100912.67;1458102;89;21452;-93
2023/05/20 00:27:16;;;;;;;12.43;8.67;;;;;;;13.17;95.83;100910.65;1451582;88;21604;-92
2023/05/20 00:29:42;;;;;;;10.70;8.10;;;;;;;13.12;96.04;100905.45;1464301;88;21499;-92
2023/05/20 00:32:08;;;;;;;12.57;10.27;;;;;;;13.09;96.58;100915.92;1474191;88;21514;-91
2023/05/20 00:34:35;;;;;;;12.87;8.80;;;;;;;13.03;96.38;100913.38;1476176;88;21411;-89
2023/05/20 00:37:01;;;;;;;10.60;8.30;;;;;;;12.98;97.04;100914.31;1469009;88;21441;-88
2023/05/20 00:39:29;;;;;;;11.83;9.63;;;;;;;12.95;96.94;100911.96;1468627;88;21492;-88
2023/05/20 00:41:59;;;;;;;11.00;8.67;;;;;;;12.91;97.69;100903.93;1469948;88;21558;-88
2023/05/20 00:44:25;;;;;;;9.43;8.10;;;;;;;12.89;97.70;100905.92;1493157;86;21444;-93
2023/05/20 00:46:53;;;;;;;11.90;9.00;;;;;;;12.86;98.29;100905.73;1467806;88;21559;-87
2023/05/20 00:49:19;;;;;;;14.40;9.53;;;;;;;12.83;97.91;100903.84;1496552;86;21496;-87
2023/05/20 00:51:46;;;;;;;11.70;9.63;;;;;;;12.81;97.99;100913.31;1482290;87;21341;-87
2023/05/20 00:54:13;;;;;;;16.37;8.03;;;;;;;12.81;98.08;100912.48;1497540;86;21497;-87
2023/05/20 00:56:40;;;;;;;15.93;8.80;;;;;;;12.80;98.99;100902.36;1481743;87;21600;-87
2023/05/20 00:59:07;;;;;;;12.40;7.97;;;;;;;12.77;99.16;100911.09;1498692;86;21564;-87
2023/05/20 01:01:33;;;;;;;14.23;8.13;;;;;;;12.74;100.00;100902.92;1454821;88;21499;-87
2023/05/20 01:04:00;;;;;;;14.40;9.70;;;;;;;12.64;100.00;100900.34;1496309;86;22368;-88
2023/05/20 01:06:27;;;;;;;18.70;10.20;;;;;;;12.65;99.03;100910.47;1484275;87;21650;-88
2023/05/20 01:08:53;;;;;;;13.80;9.03;;;;;;;12.65;98.98;100911.30;1501144;86;21445;-90
2023/05/20 01:11:28;;;;;;;14.17;10.17;;;;;;;12.58;100.00;100905.42;1496543;87;21497;-90
2023/05/20 01:13:59;;;;;;;13.83;10.00;;;;;;;12.51;99.91;100907.81;1497865;87;22317;-91
2023/05/20 01:16:25;;;;;;;13.80;8.98;;;;;;;12.50;100.00;100899.52;1498282;86;21511;-90
2023/05/20 01:18:54;;;;;;;10.97;8.97;;;;;;;12.47;100.00;100905.13;1490749;86;21511;-91
2023/05/20 01:21:21;;;;;;;17.47;9.20;;;;;;;12.43;100.00;100902.44;1495451;86;22012;-88
2023/05/20 01:23:48;;;;;;;9.73;8.60;;;;;;;12.43;100.00;100905.09;1467573;88;21462;-89
2023/05/20 01:26:14;;;;;;;14.60;9.43;;;;;;;12.44;100.00;100902.77;1490007;86;21622;-90
2023/05/20 01:28:45;;;;;;;11.70;9.70;;;;;;;12.42;100.00;100904.73;1476108;88;21418;-89
2023/05/20 01:31:18;;;;;;;;;;;;;;;12.43;100.00;100910.41;1500249;86;22392;-94
2023/05/20 01:33:47;;;;;;;11.73;9.70;;;;;;;12.31;100.00;100904.92;1498433;86;20286;-89
2023/05/20 01:36:13;;;;;;;17.57;9.87;;;;;;;12.18;100.00;100898.64;1498518;86;21466;-91
2023/05/20 01:38:41;;;;;;;14.70;9.73;;;;;;;12.12;100.00;100902.72;1496386;86;21385;-90
2023/05/20 01:41:09;;;;;;;10.17;7.67;;;;;;;12.14;100.00;100902.09;1499780;87;21533;-90
2023/05/20 01:43:36;;;;;;;10.40;8.33;;;;;;;12.15;100.00;100905.08;1505339;86;21533;-90
2023/05/20 01:46:05;;;;;;;11.93;8.70;;;;;;;12.13;100.00;100900.39;1496522;87;21437;-89
2023/05/20 01:48:32;;;;;;;15.30;9.77;;;;;;;12.09;100.00;100896.38;1475296;87;21472;-90
2023/05/20 01:50:58;;;;;;;12.50;9.87;;;;;;;12.07;100.00;100900.16;1475715;88;21625;-91
2023/05/20 01:53:24;;;;;;;14.83;9.93;;;;;;;12.07;100.00;100904.96;1475453;87;22258;-93
2023/05/20 01:55:50;;;;;;;12.47;10.23;;;;;;;12.10;100.00;100905.16;1496901;86;21586;-91
2023/05/20 01:58:17;;;;;;;9.63;8.37;;;;;;;12.07;100.00;100902.31;1492521;86;21511;-84
2023/05/20 02:00:43;;;;;;;15.00;9.70;;;;;;;12.02;100.00;100904.55;1500563;87;21564;-84
2023/05/20 02:03:10;;;;;;;10.83;8.97;;;;;;;12.01;100.00;100902.89;1494774;87;22369;-83
2023/05/20 02:05:36;;;;;;;11.33;9.53;;;;;;;12.00;100.00;100903.89;1502739;86;21407;-84
2023/05/20 02:08:02;;;;;;;18.53;9.63;;;;;;;12.00;100.00;100903.03;1484379;87;21505;-83
2023/05/20 02:10:28;;;;;;;11.90;9.27;;;;;;;12.00;100.00;100905.22;1481793;87;21400;-84
2023/05/20 02:12:54;;;;;;;15.27;11.47;;;;;;;11.99;100.00;100906.17;1478533;87;21563;-84
2023/05/20 02:15:20;;;;;;;11.47;10.00;;;;;;;11.93;100.00;100906.76;1494864;86;21423;-85
2023/05/20 02:17:46;;;;;;;10.37;8.30;;;;;;;11.88;100.00;100902.38;1477871;88;21595;-83
2023/05/20 02:20:12;;;;;;;13.90;9.40;;;;;;;11.82;100.00;100907.73;1493500;87;21408;-83
2023/05/20 02:22:39;;;;;;;12.53;9.73;;;;;;;11.82;100.00;100907.73;1475858;88;21462;-84
2023/05/20 02:25:07;;;;;;;12.13;9.67;;;;;;;11.81;100.00;100901.26;1477870;87;21415;-84
2023/05/20 02:27:33;;;;;;;11.63;9.90;;;;;;;11.81;100.00;100903.41;1500988;86;21416;-83
2023/05/20 02:30:00;;;;;;;10.37;8.43;;;;;;;11.80;100.00;100916.34;1496044;86;21495;-84
2023/05/20 02:32:27;;;;;;;11.23;9.03;;;;;;;11.79;100.00;100916.47;1496929;86;21489;-83
2023/05/20 02:34:54;;;;;;;12.03;9.63;;;;;;;11.79;100.00;100912.48;1495864;86;22243;-84
2023/05/20 02:37:21;;;;;;;14.33;8.60;;;;;;;11.75;100.00;100914.11;1495514;86;21570;-86
2023/05/20 02:39:47;;;;;;;14.97;9.47;;;;;;;11.77;100.00;100914.44;1498933;87;21474;-87
2023/05/20 02:42:13;;;;;;;11.97;9.40;;;;;;;11.72;100.00;100912.23;1495422;87;21467;-87
2023/05/20 02:44:39;;;;;;;16.60;9.57;;;;;;;11.67;100.00;100913.98;1500150;87;21385;-87
2023/05/20 02:47:06;;;;;;;10.03;8.43;;;;;;;11.64;100.00;100914.27;1498180;86;21452;-86
2023/05/20 02:49:32;;;;;;;12.60;9.47;;;;;;;11.63;100.00;100913.10;1491983;86;21541;-87
2023/05/20 02:51:58;;;;;;;12.33;9.03;;;;;;;11.63;100.00;100905.15;1495693;86;22042;-87
2023/05/20 02:54:25;;;;;;;9.10;8.13;;;;;;;11.63;100.00;100910.45;1493395;86;22265;-87
2023/05/20 02:56:51;;;;;;;12.13;9.27;;;;;;;11.63;100.00;100909.13;1495085;86;21394;-88
2023/05/20 02:59:28;;;;;;;10.00;8.37;;;;;;;11.64;100.00;100914.27;1500855;87;21474;-86
2023/05/20 03:01:54;;;;;;;9.77;7.90;;;;;;;11.60;100.00;100914.22;1496709;86;21437;-87
2023/05/20 03:04:20;;;;;;;11.77;8.50;;;;;;;11.61;100.00;100917.20;1499578;86;22266;-87
2023/05/20 03:06:46;;;;;;;12.67;10.20;;;;;;;11.60;100.00;100920.02;1477316;87;21398;-87
2023/05/20 03:09:13;;;;;;;10.47;7.87;;;;;;;11.55;100.00;100920.42;1495721;87;21571;-88
2023/05/20 03:11:39;;;;;;;13.33;8.97;;;;;;;11.55;100.00;100926.23;1471206;88;21500;-87
2023/05/20 03:14:05;;;;;;;11.43;8.77;;;;;;;11.52;100.00;100924.20;1461172;87;21796;-87
2023/05/20 03:16:34;;;;;;;10.10;8.17;;;;;;;11.51;100.00;100934.95;1473354;88;21352;-85
2023/05/20 03:19:00;;;;;;;12.00;8.40;;;;;;;11.52;100.00;100928.66;1524090;86;21402;-85
2023/05/20 03:21:27;;;;;;;12.73;8.13;;;;;;;11.52;100.00;100937.45;1491718;86;21614;-87
2023/05/20 03:23:53;;;;;;;10.53;8.37;;;;;;;11.53;100.00;100936.95;1484388;87;21545;-87
2023/05/20 03:26:20;;;;;;;9.77;8.40;;;;;;;11.57;100.00;100942.84;1497585;86;21466;-92
2023/05/20 03:28:46;;;;;;;13.90;8.63;;;;;;;11.63;100.00;100941.77;1477196;86;21490;-92
2023/05/20 03:31:13;;;;;;;10.67;9.13;;;;;;;11.67;100.00;100945.80;1478662;88;21562;-93
2023/05/20 03:33:39;;;;;;;12.50;8.83;;;;;;;11.67;100.00;100943.14;1470089;87;21401;-88
2023/05/20 03:36:06;;;;;;;9.90;7.20;;;;;;;11.71;100.00;100945.87;1476080;88;21469;-89
2023/05/20 03:38:32;;;;;;;9.27;7.87;;;;;;;11.77;100.00;100954.22;1493492;86;21571;-92
2023/05/20 03:40:59;;;;;;;11.30;7.73;;;;;;;11.78;100.00;100949.28;1478548;88;22306;-93
2023/05/20 03:43:26;;;;;;;9.73;8.50;;;;;;;11.80;100.00;100942.03;1501529;86;21430;-94
2023/05/20 03:45:52;;;;;;;10.33;8.43;;;;;;;11.83;100.00;100951.02;1466266;88;21418;-92
2023/05/20 03:48:19;;;;;;;9.63;8.03;;;;;;;11.82;100.00;100956.80;1489473;87;21570;-90
2023/05/20 03:50:45;;;;;;;10.37;8.53;;;;;;;11.85;100.00;100957.00;1473050;88;21433;-93
2023/05/20 03:53:12;;;;;;;11.00;7.70;;;;;;;11.87;100.00;100956.41;1501540;86;22420;-92
2023/05/20 03:55:38;;;;;;;9.30;7.67;;;;;;;11.89;100.00;100951.31;1465165;88;21403;-91
2023/05/20 03:58:07;;;;;;;14.00;9.40;;;;;;;11.92;100.00;100953.67;1499864;86;21512;-90
2023/05/20 04:00:35;;;;;;;9.10;7.50;;;;;;;11.95;100.00;100954.71;1473506;88;21837;-89
2023/05/20 04:03:03;;;;;;;14.07;8.50;;;;;;;11.97;100.00;100950.60;1496613;86;21467;-91
2023/05/20 04:05:29;;;;;;;10.77;8.33;;;;;;;12.03;100.00;100950.02;1477993;88;22440;-88
2023/05/20 04:07:56;;;;;;;8.60;7.27;;;;;;;12.09;100.00;100953.42;1497568;86;22656;-91
2023/05/20 04:10:23;;;;;;;10.63;8.20;;;;;;;12.17;100.00;100954.86;1475639;88;21470;-88
2023/05/20 04:12:49;;;;;;;17.20;8.13;;;;;;;12.23;100.00;100949.94;1497639;86;22496;-88
2023/05/20 04:15:15;;;;;;;11.40;8.13;;;;;;;12.31;100.00;100955.35;1475443;88;21433;-88
2023/05/20 04:17:42;;;;;;;8.33;7.13;;;;;;;12.41;100.00;100955.66;1500049;86;22271;-87
2023/05/20 04:20:10;;;;;;;12.23;8.30;;;;;;;12.50;100.00;100951.79;1474178;88;21551;-87
2023/05/20 04:22:38;;;;;;;9.60;7.93;;;;;;;12.54;100.00;100951.83;1497291;86;21614;-87
2023/05/20 04:25:05;;;;;;;8.87;7.57;;;;;;;12.58;100.00;100951.39;1478424;88;22320;-85
2023/05/20 04:27:38;;;;;;;8.47;7.33;;;;;;;12.65;100.00;100959.09;1501168;86;21496;-89
2023/05/20 04:30:05;;;;;;;10.00;7.30;;;;;;;12.74;100.00;100952.06;1471602;88;21403;-88
2023/05/20 04:32:35;;;;;;;8.53;6.97;;;;;;;12.82;100.00;100947.34;1494170;86;21438;-87
2023/05/20 04:35:06;;;;;;;10.10;7.70;;;;;;;12.91;100.00;100957.06;1501915;86;22265;-88
2023/05/20 04:37:30;;;;;;;12.27;6.63;;;;;;;12.99;100.00;100947.86;1475818;88;21566;-88
2023/05/20 04:39:57;;;;;;;9.17;7.23;;;;;;;13.09;100.00;100955.28;1494211;86;22383;-89
2023/05/20 04:42:23;;;;;;;11.73;7.97;;;;;;;13.19;100.00;100961.01;1502376;86;21430;-88
2023/05/20 04:44:49;;;;;;;11.43;8.23;;;;;;;13.30;100.00;100959.48;1451723;88;21455;-89
2023/05/20 04:47:16;;;;;;;9.50;7.90;;;;;;;13.39;100.00;100963.88;1484351;87;21460;-86
2023/05/20 04:49:42;;;;;;;8.07;7.20;;;;;;;13.48;100.00;100961.63;1456872;88;22320;-87
2023/05/20 04:52:08;;;;;;;11.10;7.17;;;;;;;13.56;100.00;100964.03;1482772;87;22413;-85
2023/05/20 04:54:34;;;;;;;8.37;7.20;;;;;;;13.64;100.00;100964.10;1470273;88;21418;-92
2023/05/20 04:57:01;;;;;;;9.73;7.90;;;;;;;13.72;98.82;100962.80;1485521;87;21394;-87
2023/05/20 04:59:27;;;;;;;10.40;7.27;;;;;;;13.78;98.39;100971.49;1463020;87;21527;-92
2023/05/20 05:01:54;;;;;;;11.77;9.13;;;;;;;13.86;97.93;100970.23;1454820;88;21396;-88
2023/05/20 05:04:20;;;;;;;12.07;8.00;;;;;;;13.93;97.95;100968.63;1501087;86;21393;-85
2023/05/20 05:06:49;;;;;;;10.23;7.90;;;;;;;14.00;97.12;100968.33;1500162;86;22199;-85
2023/05/20 05:09:15;;;;;;;9.60;6.93;;;;;;;14.11;96.86;100967.23;1468510;88;21625;-89
2023/05/20 05:11:41;;;;;;;7.70;6.90;;;;;;;14.22;97.00;100957.66;1498859;87;21467;-88
2023/05/20 05:14:08;;;;;;;8.37;6.70;;;;;;;14.32;95.17;100966.02;1475838;88;21618;-90
2023/05/20 05:16:34;;;;;;;10.43;7.57;;;;;;;14.43;95.96;100967.89;1507429;86;21430;-91
2023/05/20 05:19:00;;;;;;;14.57;8.10;;;;;;;14.54;95.71;100966.81;1473094;88;21411;-90
2023/05/20 05:21:27;;;;;;;10.57;7.30;;;;;;;14.66;95.46;100966.02;1495512;87;22092;-85
2023/05/20 05:23:53;;;;;;;9.77;7.70;;;;;;;14.74;94.50;100964.73;1473000;88;22491;-86
2023/05/20 05:26:19;;;;;;;11.80;6.37;;;;;;;14.85;94.29;100964.43;1494226;86;21438;-86
2023/05/20 05:29:01;;;;;;;8.90;7.53;;;;;;;14.96;93.58;100962.44;1476037;88;21597;-85
2023/05/20 05:31:27;;;;;;;8.90;7.57;;;;;;;15.11;93.62;100970.16;1492267;87;21406;-84
2023/05/20 05:33:53;;;;;;;13.13;7.63;;;;;;;15.22;92.26;100964.52;1476779;88;21573;-85
2023/05/20 05:36:25;;;;;;;10.00;7.67;;;;;;;15.35;92.12;100965.34;1491391;87;21430;-89
2023/05/20 05:38:52;;;;;;;11.10;7.63;;;;;;;15.51;92.70;100964.02;1453372;88;21417;-90
2023/05/20 05:41:20;;;;;;;11.63;7.07;;;;;;;15.65;91.60;100963.86;1501787;87;22382;-90
2023/05/20 05:43:46;;;;;;;8.97;6.90;;;;;;;15.73;90.52;100963.03;1501115;86;21430;-90
2023/05/20 05:46:13;;;;;;;12.00;6.87;;;;;;;15.89;90.44;100959.52;1468123;88;21647;-89
2023/05/20 05:48:41;;;;;;;7.50;6.20;;;;;;;16.06;90.74;100961.16;1494664;87;21415;-90
2023/05/20 05:51:07;;;;;;;11.97;6.57;;;;;;;16.18;88.31;100965.63;1483022;87;21585;-90
2023/05/20 05:53:33;;;;;;;13.07;7.53;;;;;;;16.26;86.69;100960.78;1472994;88;22477;-87
2023/05/20 05:56:00;;;;;;;8.20;7.40;;;;;;;16.39;87.80;100958.38;1497033;86;22384;-88
2023/05/20 05:58:26;;;;;;;10.27;7.07;;;;;;;16.51;87.53;100960.17;1479082;88;21470;-88
2023/05/20 06:00:53;;;;;;;9.90;7.80;;;;;;;16.65;87.89;100958.10;1500449;87;21991;-89
2023/05/20 06:03:20;;;;;;;7.97;7.13;;;;;;;16.73;85.67;100961.25;1471741;88;21449;-87
2023/05/20 06:05:46;;;;;;;8.07;6.17;;;;;;;16.83;85.47;100965.89;1496114;86;21437;-88
2023/05/20 06:08:12;;;;;;;12.73;7.80;;;;;;;16.93;85.21;100963.84;1469091;88;22262;-87
2023/05/20 06:10:39;;;;;;;11.43;7.30;;;;;;;17.09;86.17;100958.41;1480907;87;21518;-86
2023/05/20 06:13:05;;;;;;;7.87;6.90;;;;;;;17.19;84.59;100958.67;1461283;88;21477;-88
2023/05/20 06:15:31;;;;;;;11.70;7.00;;;;;;;17.34;84.60;100964.90;1498113;87;22310;-87
2023/05/20 06:17:57;;;;;;;15.00;7.53;;;;;;;17.49;84.70;100959.11;1497367;87;21511;-86
2023/05/20 06:20:23;;;;;;;12.77;7.80;;;;;;;17.53;82.18;100964.93;1476092;88;21589;-86
2023/05/20 06:22:49;;;;;;;13.13;7.53;;;;;;;17.58;81.94;100967.39;1497558;87;21541;-87
2023/05/20 06:25:16;;;;;;;12.20;8.70;;;;;;;17.66;81.21;100958.95;1469681;88;22342;-86
2023/05/20 06:27:42;;;;;;;13.00;8.73;;;;;;;17.81;82.44;100955.85;1499888;86;21526;-86
2023/05/20 06:30:10;;;;;;;10.20;7.63;;;;;;;17.92;82.08;100959.39;1476314;88;21430;-88
2023/05/20 06:32:36;;;;;;;9.13;6.90;;;;;;;18.04;81.41;100955.28;1498724;87;21422;-84
2023/05/20 06:35:02;;;;;;;9.40;6.97;;;;;;;18.18;81.43;100944.25;1458295;88;21410;-86
2023/05/20 06:37:29;;;;;;;10.32;7.47;;;;;;;18.33;80.65;100942.90;1496982;87;22487;-85
2023/05/20 06:39:55;;;;;;;9.10;6.83;;;;;;;18.47;79.94;100937.18;1494479;86;21467;-85
2023/05/20 06:42:21;;;;;;;9.68;7.25;;;;;;;18.62;79.58;100938.00;1476639;88;21454;-86
2023/05/20 06:44:47;;;;;;;11.78;6.90;;;;;;;18.70;78.78;100933.02;1497648;86;21466;-84
2023/05/20 06:47:16;;;;;;;12.95;7.05;;;;;;;18.87;79.46;100938.55;1496633;86;21496;-83
2023/05/20 06:49:45;;;;;;;8.78;6.58;;;;;;;19.01;78.30;100934.12;1493370;87;21578;-83
2023/05/20 06:52:11;;;;;;;11.00;7.78;;;;;;;19.20;79.10;100935.36;1497149;86;21405;-82
2023/05/20 06:54:40;;;;;;;8.58;6.67;;;;;;;19.38;78.52;100938.92;1500356;86;21640;-83
2023/05/20 06:57:07;;;;;;;9.23;6.70;;;;;;;19.47;76.72;100936.41;1494980;87;21436;-81
2023/05/20 06:59:35;;;;;;;8.20;7.40;;;;;;;19.52;75.33;100935.33;1482894;87;21422;-92
2023/05/20 07:02:02;;;;;;;9.78;6.97;;;;;;;19.61;75.79;100935.50;1495340;87;21533;-91
2023/05/20 07:04:29;;;;;;;11.10;6.65;;;;;;;19.71;75.62;100939.23;1437054;86;21556;-91
2023/05/20 07:06:55;;;;;;;11.33;7.67;;;;;;;19.81;75.84;100935.68;1584536;87;21386;-91
2023/05/20 07:09:21;;;;;;;11.08;7.58;;;;;;;19.98;76.36;100931.35;1480867;86;21555;-85
2023/05/20 07:11:49;;;;;;;11.25;7.78;;;;;;;20.15;75.13;100934.04;1475981;88;21352;-83
2023/05/20 07:14:15;;;;;;;11.75;8.65;;;;;;;20.26;74.64;100932.14;1522130;86;21444;-84
2023/05/20 07:16:41;;;;;;;12.98;9.05;;;;;;;20.42;74.71;100928.79;1494237;87;21452;-89
2023/05/20 07:19:07;;;;;;;8.45;7.45;;;;;;;20.52;72.69;100927.91;1495359;86;21610;-87
2023/05/20 07:21:33;;;;;;;14.60;8.18;;;;;;;20.60;73.54;100927.78;1498644;87;21451;-86
2023/05/20 07:24:00;;;;;;;14.15;7.80;;;;;;;20.70;73.50;100925.52;1495726;86;21437;-87
2023/05/20 07:26:26;;;;;;;11.53;7.58;;;;;;;20.86;73.56;100926.17;1493989;87;21643;-86
2023/05/20 07:28:58;;;;;;;7.72;6.37;;;;;;;20.95;73.09;100919.59;1477689;88;22126;-86
2023/05/20 07:31:25;;;;;;;10.00;7.67;;;;;;;21.08;72.34;100919.60;1494369;86;22444;-87
2023/05/20 07:33:52;;;;;;;9.43;7.28;;;;;;;21.16;71.61;100921.28;1477422;88;21418;-85
2023/05/20 07:36:20;;;;;;;11.57;7.50;;;;;;;21.22;71.71;100903.48;1493795;87;21548;-92
2023/05/20 07:38:46;;;;;;;12.07;7.47;;;;;;;21.42;71.04;100920.50;1475231;88;21448;-91
2023/05/20 07:41:12;;;;;;;14.98;7.92;;;;;;;21.42;71.04;100920.50;1495495;87;21482;-89
2023/05/20 07:43:39;;;;;;;10.80;8.18;;;;;;;21.57;70.99;100914.89;1463107;88;22255;-92
2023/05/20 07:46:05;;;;;;;15.80;8.53;;;;;;;21.62;67.97;100920.49;1498121;87;21553;-88
2023/05/20 07:48:31;;;;;;;10.28;6.85;;;;;;;21.75;68.36;100919.64;1478396;87;21400;-93
2023/05/20 07:50:58;;;;;;;10.80;8.00;;;;;;;21.94;69.95;100921.48;1494673;86;21919;-93
2023/05/20 07:53:25;;;;;;;12.93;6.92;;;;;;;22.11;68.59;100918.34;1495324;86;22244;-94
2023/05/20 07:55:52;;;;;;;8.28;6.00;;;;;;;22.16;66.09;100921.23;1498984;86;21503;-91
2023/05/20 07:58:18;;;;;;;13.28;7.15;;;;;;;22.22;67.15;100928.50;1496949;86;21429;-92
2023/05/20 08:00:44;;;;;;;11.88;7.60;;;;;;;22.30;65.67;100924.23;1476177;88;21360;-90
2023/05/20 08:03:11;;;;;;;12.55;7.37;;;;;;;22.40;64.38;100925.94;1495762;86;21605;-95
2023/05/20 08:05:37;;;;;;;12.30;7.12;;;;;;;22.50;65.48;100922.28;1460067;88;21412;-89
2023/05/20 08:08:04;;;;;;;9.23;7.03;;;;;;;22.65;65.54;100928.73;1497921;87;21445;-90
2023/05/20 08:10:30;;;;;;;8.05;7.05;;;;;;;22.84;65.03;100924.79;1479320;87;21518;-91
2023/05/20 08:12:56;;;;;;;13.28;7.03;;;;;;;22.97;63.92;100927.45;1471452;88;21605;-89
2023/05/20 08:15:23;;;;;;;18.90;8.03;;;;;;;23.13;64.12;100913.94;1482169;87;21380;-88
2023/05/20 08:17:49;;;;;;;9.43;6.45;;;;;;;23.32;63.49;100921.07;1473100;88;21596;-93
2023/05/20 08:20:15;;;;;;;9.55;7.92;;;;;;;23.45;62.38;100915.25;1494074;86;21961;-92
2023/05/20 08:22:42;;;;;;;11.03;7.22;;;;;;;23.60;61.85;100911.70;1475611;88;22290;-89
2023/05/20 08:25:09;;;;;;;12.70;7.33;;;;;;;23.69;59.19;100909.02;1497711;87;21548;-91
2023/05/20 08:27:36;;;;;;;9.78;7.40;;;;;;;23.82;60.89;100910.28;1491362;87;22489;-91
2023/05/20 08:30:05;;;;;;;11.85;7.42;;;;;;;24.00;61.93;100912.70;1495559;86;21421;-95
2023/05/20 08:32:31;;;;;;;10.23;7.37;;;;;;;24.10;60.18;100909.75;1583577;86;21386;-93
2023/05/20 08:35:00;;;;;;;12.40;7.65;;;;;;;24.07;57.56;100910.73;1481591;86;21297;-92
2023/05/20 08:37:27;;;;;;;9.63;6.70;;;;;;;24.16;58.41;100903.97;1558485;88;21463;-92
2023/05/20 08:39:54;;;;;;;14.73;7.65;;;;;;;24.19;55.69;100902.69;1418293;87;21497;-91
2023/05/20 08:42:23;;;;;;;8.40;6.40;;;;;;;24.23;57.71;100900.67;1384149;89;22285;-88
2023/05/20 08:44:52;;;;;;;12.98;7.75;;;;;;;24.19;59.02;100901.34;1456812;86;21671;-87
2023/05/20 08:47:20;;;;;;;9.68;7.20;;;;;;;24.30;57.62;100897.34;1472720;88;21507;-87
2023/05/20 08:49:48;;;;;;;15.98;6.95;;;;;;;24.36;57.44;100893.44;1495514;86;21421;-86
2023/05/20 08:52:19;;;;;;;9.75;6.12;;;;;;;24.44;57.95;100887.22;1457568;88;22312;-87
2023/05/20 08:54:49;;;;;;;11.55;7.08;;;;;;;24.67;57.66;100879.73;1497162;86;21444;-86
2023/05/20 08:57:15;;;;;;;9.23;7.55;;;;;;;24.68;57.63;100881.91;1461617;88;22439;-88
2023/05/20 08:59:49;;;;;;;12.90;7.78;;;;;;;24.76;57.19;100886.46;1499296;86;22621;-87
2023/05/20 09:02:16;;;;;;;12.03;7.53;;;;;;;24.79;57.11;100885.71;1474634;88;21491;-89
2023/05/20 09:04:42;;;;;;;9.38;6.65;;;;;;;24.90;57.39;100885.75;1496075;86;21452;-88
2023/05/20 09:07:09;;;;;;;11.83;6.97;;;;;;;24.93;57.10;100879.05;1476014;88;21580;-88
2023/05/20 09:09:35;;;;;;;12.47;7.50;;;;;;;24.95;56.13;100873.70;1499189;86;21592;-87
2023/05/20 09:12:02;;;;;;;13.50;6.42;;;;;;;24.94;51.25;100869.86;1474576;88;22283;-89
2023/05/20 09:14:30;;;;;;;14.95;7.75;;;;;;;25.11;54.45;100869.48;1495831;86;21438;-87
2023/05/20 09:17:01;;;;;;;11.05;6.78;;;;;;;25.36;53.68;100871.20;1472034;88;21478;-88
2023/05/20 09:19:27;;;;;;;8.15;7.03;;;;;;;25.58;53.53;100868.73;1499363;86;21437;-86
2023/05/20 09:21:57;;;;;;;7.55;6.65;;;;;;;25.69;48.40;100872.48;1469908;88;21514;-90
2023/05/20 09:24:24;;;;;;;;;;;;;;;25.79;49.08;100870.01;1499625;86;21422;-89
2023/05/20 09:26:51;;;;;;;17.30;6.12;;;;;;;25.88;47.75;100867.25;1499214;86;20271;-89
2023/05/20 09:29:20;;;;;;;10.48;5.60;;;;;;;26.06;49.58;100867.08;1397049;88;21389;-90
2023/05/20 09:31:46;;;;;;;7.22;5.45;;;;;;;26.04;42.44;100865.16;1515576;87;21472;-88
2023/05/20 09:34:12;;;;;;;7.53;6.42;;;;;;;26.15;42.52;100868.07;1469879;88;21411;-88
2023/05/20 09:36:41;;;;;;;12.68;6.10;;;;;;;25.95;41.18;100863.89;1498645;86;22071;-89
2023/05/20 09:39:39;;;;;;;8.05;6.17;;;;;;;25.94;42.87;100859.52;1496831;86;21583;-85
2023/05/20 09:42:28;;;;;;;10.95;6.42;;;;;;;26.18;43.47;100860.80;1557229;87;21547;-89
2023/05/20 09:48:53;;;;;;;14.20;7.47;;;;;;;26.36;42.56;100847.08;1503373;87;21319;-94
2023/05/20 09:51:22;;;;;;;12.15;6.55;;;;;;;26.63;44.67;100856.01;1585098;87;21489;-89
2023/05/20 09:53:50;;;;;;;7.65;6.05;;;;;;;26.69;42.68;100853.13;1494050;87;21429;-91
2023/05/20 09:56:24;;;;;;;9.73;6.50;;;;;;;26.91;43.79;100847.82;1467613;87;21694;-94
2023/05/20 09:58:57;;;;;;;13.05;6.65;;;;;;;26.91;41.23;100847.82;1491768;87;21607;-95
2023/05/20 10:01:31;;;;;;;;;;;;;;;;;;;;;
2023/05/20 10:03:52;;;;;;;13.15;6.95;;;;;;;27.23;41.59;100845.92;1495511;87;21444;-95
2023/05/20 10:06:26;;;;;;;7.03;5.95;;;;;;;27.33;40.14;100841.98;1499807;87;21636;-90
2023/05/20 10:09:19;;;;;;;7.20;5.83;;;;;;;27.38;40.08;100844.78;1502995;87;21570;-90
2023/05/20 10:12:15;;;;;;;8.68;5.70;;;;;;;27.53;39.57;100842.00;1500519;87;21474;-92
2023/05/20 10:18:47;;;;;;;;;;;;;;;27.51;37.58;100836.02;1460862;89;21494;-92
2023/05/20 10:21:17;;;;;;;5.87;5.22;;;;;;;27.66;38.84;100828.06;1457060;89;20409;-90
2023/05/20 10:27:45;;;;;;;8.93;6.08;;;;;;;27.82;37.97;100816.86;1462013;89;21509;-91
2023/05/20 10:30:17;;;;;;;9.18;5.97;;;;;;;28.08;38.96;100808.47;1460501;89;22573;-90
2023/05/20 10:32:56;;;;;;;13.93;6.65;;;;;;;27.93;37.13;100814.55;1445939;89;22381;-92
2023/05/20 10:35:28;;;;;;;8.90;6.20;;;;;;;27.51;38.30;100806.11;1456441;89;21590;-89
2023/05/20 10:37:56;;;;;;;10.45;6.62;;;;;;;26.85;37.97;100801.83;1456462;89;21495;-92
2023/05/20 10:40:24;;;;;;;11.50;6.67;;;;;;;26.39;40.02;100803.17;1442845;90;21474;-92
2023/05/20 10:42:52;;;;;;;13.55;6.10;;;;;;;26.14;40.56;100801.33;1441778;90;21622;-92
2023/05/20 10:45:27;;;;;;;7.78;5.97;;;;;;;26.21;41.64;100800.64;1452344;90;21473;-94
2023/05/20 10:47:57;;;;;;;8.10;5.58;;;;;;;26.50;40.12;100807.75;1462090;90;21451;-90
2023/05/20 10:50:42;;;;;;;6.50;4.92;;;;;;;26.70;37.55;100799.66;1446025;90;21658;-91
2023/05/20 10:53:06;;;;;;;6.87;5.37;;;;;;;26.97;37.65;100802.02;1489504;87;22384;-94
2023/05/20 10:55:52;;;;;;;;;;;;;;;;;;;;;
2023/05/20 11:02:03;;;;;;;17.57;4.62;;;;;;;27.87;37.17;100789.73;1499186;86;21600;-95
2023/05/20 11:04:38;;;;;;;6.47;4.83;;;;;;;28.29;36.77;100777.69;1484435;87;21419;-88
2023/05/20 11:07:15;;;;;;;;;;;;;;;;;;;;;
2023/05/20 11:09:52;;;;;;;;;;;;;;;;;;;;;
2023/05/20 11:12:16;;;;;;;5.97;4.60;;;;;;;28.99;36.13;100762.78;1467768;88;21466;-94
2023/05/20 11:19:17;;;;;;;;;;;;;;;;;;;;;
2023/05/20 11:21:51;;;;;;;7.67;4.72;;;;;;;28.75;34.29;100741.37;1410786;91;21442;-92
2023/05/20 11:24:27;;;;;;;11.22;4.60;;;;;;;28.79;34.83;100740.30;1467447;90;21487;-93
2023/05/20 11:27:09;;;;;;;;;;;;;;;;;;;;;
2023/05/20 11:29:37;;;;;;;13.80;5.47;;;;;;;28.54;33.63;100738.19;1440820;91;21436;-92
2023/05/20 11:36:22;;;;;;;;;;;;;;;;;;;;;
2023/05/20 11:38:45;;;;;;;11.93;4.62;;;;;;;28.73;34.97;100732.63;1443571;88;21719;-94
2023/05/20 11:41:11;;;;;;;5.53;4.15;;;;;;;28.83;33.99;100728.33;1469910;88;21479;-91
2023/05/20 11:43:38;;;;;;;7.12;4.60;;;;;;;29.03;33.73;100725.77;1468607;88;21390;-92
2023/05/20 11:46:12;;;;;;;10.48;4.90;;;;;;;28.84;31.70;100719.09;1470369;88;21510;-93
2023/05/20 11:48:40;;;;;;;6.05;4.17;;;;;;;28.98;33.09;100720.28;1471378;88;22466;-92
2023/05/20 11:51:14;;;;;;;6.92;4.40;;;;;;;29.07;31.37;100713.28;1474347;87;22044;-94
2023/05/20 11:53:41;;;;;;;9.68;4.33;;;;;;;29.13;32.69;100708.13;1472351;88;21705;-94